Time;durP1;ratioP1;P1;durP2;ratioP2;P2;SDS_P1;SDS_P2;PMS_P1;PMS_P2;Temp;Humidity;BMP_temperature;BMP_pressure;BME280_temperature;BME280_humidity;BME280_pressure;Samples;Min_cycle;Max_cycle;Signal;HPM_P1;HPM_P2
2023/05/07 00:00:59;;;;;;;13.57;9.57;;;9.90;99.90;;;;;;5034136;28;20252;-91
2023/05/07 00:03:26;;;;;;;14.35;10.23;;;9.80;99.90;;;;;;5034315;28;20236;-85
2023/05/07 00:05:55;;;;;;;16.52;10.43;;;9.80;99.90;;;;;;5034528;28;20569;-85
2023/05/07 00:08:21;;;;;;;17.98;10.95;;;9.80;99.90;;;;;;5034683;28;20228;-85
2023/05/07 00:10:47;;;;;;;13.95;10.38;;;9.80;99.90;;;;;;5034389;28;20186;-86
2023/05/07 00:13:13;;;;;;;15.85;10.73;;;9.90;99.90;;;;;;5034501;28;20178;-87
2023/05/07 00:15:38;;;;;;;14.63;10.35;;;9.90;99.90;;;;;;5049575;28;20188;-87
2023/05/07 00:18:06;;;;;;;13.93;10.65;;;9.80;99.90;;;;;;5074465;28;20184;-87
2023/05/07 00:20:32;;;;;;;14.85;10.85;;;9.80;99.90;;;;;;5074358;28;20181;-83
2023/05/07 00:22:57;;;;;;;15.00;10.73;;;9.80;99.90;;;;;;5074119;28;20279;-86
2023/05/07 00:25:23;;;;;;;14.13;10.30;;;9.70;99.90;;;;;;5074094;28;20722;-86
2023/05/07 00:27:49;;;;;;;15.60;9.43;;;9.70;99.90;;;;;;5074290;28;20177;-87
2023/05/07 00:30:14;;;;;;;13.45;9.93;;;9.70;99.90;;;;;;5075147;28;20165;-86
2023/05/07 00:32:40;;;;;;;13.15;9.27;;;9.70;99.90;;;;;;5074005;28;20495;-85
2023/05/07 00:35:07;;;;;;;10.45;8.30;;;9.70;99.90;;;;;;5074146;28;20173;-85
2023/05/07 00:37:34;;;;;;;10.98;7.82;;;9.70;99.90;;;;;;5074139;28;20264;-85
2023/05/07 00:40:03;;;;;;;9.35;8.05;;;9.70;99.90;;;;;;5074228;28;20173;-87
2023/05/07 00:42:28;;;;;;;10.73;7.18;;;9.70;99.90;;;;;;5073794;28;20235;-85
2023/05/07 00:44:55;;;;;;;9.43;7.28;;;9.70;99.90;;;;;;5071734;28;20252;-87
2023/05/07 00:47:21;;;;;;;10.07;7.75;;;9.80;99.90;;;;;;5053873;28;20178;-86
2023/05/07 00:49:46;;;;;;;9.00;7.53;;;9.70;99.90;;;;;;5053793;28;20173;-86
2023/05/07 00:52:15;;;;;;;9.47;7.70;;;9.70;99.90;;;;;;5053745;28;20182;-89
2023/05/07 00:54:42;;;;;;;10.50;7.35;;;9.70;99.90;;;;;;5053769;28;20178;-85
2023/05/07 00:57:13;;;;;;;9.48;7.38;;;9.70;99.90;;;;;;5053935;28;20248;-87
2023/05/07 00:59:40;;;;;;;9.57;6.80;;;9.70;99.90;;;;;;5053673;28;20165;-84
2023/05/07 01:02:06;;;;;;;8.35;7.13;;;9.70;99.90;;;;;;5054452;28;20208;-87
2023/05/07 01:04:32;;;;;;;9.40;7.05;;;9.70;99.90;;;;;;5053813;28;20178;-86
2023/05/07 01:07:03;;;;;;;8.07;6.67;;;9.70;99.90;;;;;;5053256;28;20182;-87
2023/05/07 01:09:29;;;;;;;9.77;6.72;;;9.70;99.90;;;;;;5053585;28;20507;-85
2023/05/07 01:11:57;;;;;;;9.13;7.18;;;9.70;99.90;;;;;;5053545;28;20174;-87
2023/05/07 01:14:23;;;;;;;9.25;6.40;;;9.70;99.90;;;;;;5053684;28;20182;-87
2023/05/07 01:16:53;;;;;;;8.65;6.93;;;9.70;99.90;;;;;;5036284;28;20182;-88
2023/05/07 01:19:20;;;;;;;11.77;7.50;;;9.70;99.90;;;;;;5033869;28;20175;-86
2023/05/07 01:21:47;;;;;;;9.67;7.07;;;9.70;99.90;;;;;;5033438;28;20209;-88
2023/05/07 01:24:14;;;;;;;9.15;6.97;;;9.70;99.90;;;;;;5033667;28;20209;-89
2023/05/07 01:26:42;;;;;;;10.10;7.13;;;9.60;99.90;;;;;;5033365;28;20182;-91
2023/05/07 01:29:08;;;;;;;9.05;6.65;;;9.70;99.90;;;;;;5033418;28;20178;-85
2023/05/07 01:31:35;;;;;;;11.20;6.80;;;9.70;99.90;;;;;;5033280;28;20528;-85
2023/05/07 01:34:03;;;;;;;9.00;6.60;;;9.60;99.90;;;;;;5033373;28;20187;-88
2023/05/07 01:36:31;;;;;;;9.00;6.60;;;9.60;99.90;;;;;;5034147;28;20190;-84
2023/05/07 01:38:58;;;;;;;11.88;6.88;;;9.60;99.90;;;;;;5032972;28;20182;-90
2023/05/07 01:41:24;;;;;;;12.18;7.57;;;9.60;99.90;;;;;;5033099;28;20214;-87
2023/05/07 01:43:51;;;;;;;10.98;7.60;;;9.60;99.90;;;;;;5033202;28;20274;-87
2023/05/07 01:46:18;;;;;;;9.17;6.83;;;9.50;99.90;;;;;;5032984;28;20230;-88
2023/05/07 01:48:46;;;;;;;10.93;7.07;;;9.60;99.90;;;;;;5033299;28;20658;-88
2023/05/07 01:51:12;;;;;;;9.38;7.78;;;9.60;99.90;;;;;;5034596;28;20277;-91
2023/05/07 01:53:40;;;;;;;10.25;7.90;;;9.50;99.90;;;;;;5033246;28;20218;-84
2023/05/07 01:56:06;;;;;;;9.23;7.27;;;9.50;99.90;;;;;;5033104;28;20257;-87
2023/05/07 01:58:32;;;;;;;11.18;7.72;;;9.50;99.90;;;;;;5033338;28;20201;-87
2023/05/07 02:00:57;;;;;;;8.77;7.03;;;9.40;99.90;;;;;;5032955;28;20636;-88
2023/05/07 02:03:23;;;;;;;10.55;7.78;;;9.50;99.90;;;;;;5033295;28;20233;-86
2023/05/07 02:05:49;;;;;;;9.30;6.93;;;9.50;99.90;;;;;;5033126;28;20183;-85
2023/05/07 02:08:18;;;;;;;8.80;7.07;;;9.50;99.90;;;;;;5033059;28;20189;-87
2023/05/07 02:10:44;;;;;;;9.80;7.40;;;9.50;99.90;;;;;;5033016;28;20189;-89
2023/05/07 02:13:09;;;;;;;8.50;6.65;;;9.50;99.90;;;;;;5033798;28;20250;-88
2023/05/07 02:15:35;;;;;;;10.13;7.22;;;9.50;99.90;;;;;;5041978;28;20197;-87
2023/05/07 02:18:08;;;;;;;8.83;6.33;;;9.50;99.90;;;;;;5057825;28;20174;-88
2023/05/07 02:20:34;;;;;;;8.30;6.23;;;9.50;99.90;;;;;;5056502;28;20188;-88
2023/05/07 02:23:00;;;;;;;9.23;6.97;;;9.50;99.90;;;;;;5057374;28;20173;-86
2023/05/07 02:25:26;;;;;;;9.27;6.30;;;9.40;99.90;;;;;;5056467;28;20182;-85
2023/05/07 02:27:52;;;;;;;8.98;6.63;;;9.50;99.90;;;;;;5057748;28;20178;-87
2023/05/07 02:30:20;;;;;;;11.03;6.87;;;9.50;99.90;;;;;;5057214;28;20215;-89
2023/05/07 02:32:46;;;;;;;8.93;6.63;;;9.40;99.90;;;;;;5057669;28;20181;-86
2023/05/07 02:35:12;;;;;;;9.32;6.97;;;9.40;99.90;;;;;;5056556;28;20182;-87
2023/05/07 02:37:39;;;;;;;9.57;6.87;;;9.40;99.90;;;;;;5056453;28;20185;-88
2023/05/07 02:40:06;;;;;;;12.90;7.07;;;9.40;99.90;;;;;;5057443;28;20312;-87
2023/05/07 02:42:31;;;;;;;10.00;7.25;;;9.40;99.90;;;;;;5055872;28;20224;-87
2023/05/07 02:44:57;;;;;;;9.02;6.95;;;9.40;99.90;;;;;;5055450;28;20230;-87
2023/05/07 02:47:26;;;;;;;11.65;7.90;;;9.30;99.90;;;;;;5055532;28;20181;-87
2023/05/07 02:49:52;;;;;;;9.65;7.63;;;9.30;99.90;;;;;;5056133;28;20178;-86
2023/05/07 02:52:18;;;;;;;8.63;7.03;;;9.30;99.90;;;;;;5055886;28;20188;-85
2023/05/07 02:54:44;;;;;;;9.85;7.53;;;9.30;99.90;;;;;;5055975;28;20186;-87
2023/05/07 02:57:11;;;;;;;9.25;7.60;;;9.30;99.90;;;;;;5055939;28;20190;-88
2023/05/07 02:59:36;;;;;;;10.13;7.70;;;9.20;99.90;;;;;;5056872;28;20597;-84
2023/05/07 03:02:02;;;;;;;9.65;7.55;;;9.20;99.90;;;;;;5055159;28;20218;-87
2023/05/07 03:04:27;;;;;;;8.93;7.03;;;9.20;99.90;;;;;;5055815;28;20182;-86
2023/05/07 03:06:53;;;;;;;9.70;7.23;;;9.20;99.90;;;;;;5055595;28;20627;-86
2023/05/07 03:09:19;;;;;;;9.00;7.63;;;9.20;99.90;;;;;;5055546;28;20182;-85
2023/05/07 03:11:44;;;;;;;9.23;7.33;;;9.20;99.90;;;;;;5055532;28;20185;-86
2023/05/07 03:14:10;;;;;;;13.43;7.73;;;9.20;99.90;;;;;;5055467;28;20192;-85
2023/05/07 03:16:36;;;;;;;8.85;7.88;;;9.20;99.90;;;;;;5071956;28;20181;-86
2023/05/07 03:19:01;;;;;;;11.70;8.43;;;9.20;99.90;;;;;;5075275;28;20212;-83
2023/05/07 03:21:27;;;;;;;10.57;8.43;;;9.20;99.90;;;;;;5075333;28;20217;-86
2023/05/07 03:23:53;;;;;;;9.98;8.73;;;9.30;99.90;;;;;;5075209;28;20188;-88
2023/05/07 03:26:18;;;;;;;9.27;7.70;;;9.30;99.90;;;;;;5074128;28;20489;-86
2023/05/07 03:28:44;;;;;;;9.52;8.13;;;9.30;99.90;;;;;;5074841;28;20177;-85
2023/05/07 03:31:10;;;;;;;16.13;9.52;;;9.20;99.90;;;;;;5074778;28;20272;-86
2023/05/07 03:33:39;;;;;;;11.48;9.13;;;9.20;99.90;;;;;;5075190;28;20208;-84
2023/05/07 03:36:04;;;;;;;11.87;9.30;;;9.20;99.90;;;;;;5074605;28;20181;-86
2023/05/07 03:38:30;;;;;;;12.37;9.70;;;9.20;99.90;;;;;;5076040;28;20185;-91
2023/05/07 03:40:56;;;;;;;10.25;8.45;;;9.20;99.90;;;;;;5074145;28;20212;-85
2023/05/07 03:43:21;;;;;;;10.33;8.60;;;9.30;99.90;;;;;;5074072;28;20213;-86
2023/05/07 03:45:47;;;;;;;10.77;9.20;;;9.20;99.90;;;;;;5065006;28;20244;-84
2023/05/07 03:48:12;;;;;;;10.07;8.48;;;9.20;99.90;;;;;;5054669;28;20186;-86
2023/05/07 03:50:38;;;;;;;9.93;8.80;;;9.10;99.90;;;;;;5055911;28;20544;-87
2023/05/07 03:53:04;;;;;;;9.90;8.15;;;9.20;99.90;;;;;;5054409;28;20178;-85
2023/05/07 03:55:30;;;;;;;9.83;8.83;;;9.10;99.90;;;;;;5054679;28;20178;-88
2023/05/07 03:57:59;;;;;;;9.40;8.20;;;9.10;99.90;;;;;;5055093;28;20192;-87
2023/05/07 04:00:25;;;;;;;10.60;8.60;;;9.10;99.90;;;;;;5054362;28;20196;-86
2023/05/07 04:02:51;;;;;;;9.50;8.37;;;9.20;99.90;;;;;;5054519;28;20299;-86
2023/05/07 04:05:16;;;;;;;10.87;8.20;;;9.10;99.90;;;;;;5054489;28;20294;-86
2023/05/07 04:07:42;;;;;;;8.30;7.18;;;9.10;99.90;;;;;;5054285;28;20178;-86
2023/05/07 04:10:08;;;;;;;9.20;7.80;;;9.10;99.90;;;;;;5054183;28;20182;-85
2023/05/07 04:12:34;;;;;;;10.65;7.82;;;9.20;99.90;;;;;;5054030;28;20181;-85
2023/05/07 04:14:59;;;;;;;8.60;7.60;;;9.20;99.90;;;;;;5054332;28;20211;-85
2023/05/07 04:17:25;;;;;;;8.00;7.10;;;9.20;99.90;;;;;;5054314;28;20178;-88
2023/05/07 04:19:51;;;;;;;8.97;7.17;;;9.20;99.90;;;;;;5054482;28;20269;-86
2023/05/07 04:22:16;;;;;;;9.00;7.63;;;9.20;99.90;;;;;;5054150;28;20237;-85
2023/05/07 04:24:42;;;;;;;8.23;7.27;;;9.30;99.90;;;;;;5054185;28;20554;-91
2023/05/07 04:27:08;;;;;;;9.37;7.40;;;9.30;99.90;;;;;;5054249;28;20276;-87
2023/05/07 04:29:35;;;;;;;8.60;7.40;;;9.30;99.90;;;;;;5054123;28;20174;-88
2023/05/07 04:32:01;;;;;;;8.93;7.03;;;9.30;99.90;;;;;;5053810;28;20244;-89
2023/05/07 04:34:27;;;;;;;8.23;7.23;;;9.30;99.90;;;;;;5053693;28;20508;-86
2023/05/07 04:36:52;;;;;;;8.83;7.27;;;9.30;99.90;;;;;;5053820;28;20177;-87
2023/05/07 04:39:25;;;;;;;9.67;7.73;;;9.30;99.90;;;;;;5053690;28;20173;-85
2023/05/07 04:41:51;;;;;;;8.27;7.33;;;9.30;99.90;;;;;;5054919;28;20644;-89
2023/05/07 04:44:16;;;;;;;9.25;8.27;;;9.30;99.90;;;;;;5053833;28;20320;-86
2023/05/07 04:46:42;;;;;;;9.60;7.77;;;9.20;99.90;;;;;;5070077;28;20233;-86
2023/05/07 04:49:17;;;;;;;8.63;7.20;;;9.20;99.90;;;;;;5074779;28;20205;-86
2023/05/07 04:51:42;;;;;;;8.47;7.60;;;9.20;99.90;;;;;;5073790;28;20169;-88
2023/05/07 04:54:08;;;;;;;8.83;7.67;;;9.30;99.90;;;;;;5073804;28;20187;-86
2023/05/07 04:56:34;;;;;;;8.27;7.28;;;9.30;99.90;;;;;;5073977;28;20189;-84
2023/05/07 04:59:01;;;;;;;8.80;7.17;;;9.30;99.90;;;;;;5073741;28;20275;-87
2023/05/07 05:01:27;;;;;;;9.40;7.63;;;9.30;99.90;;;;;;5074628;28;20275;-85
2023/05/07 05:03:53;;;;;;;8.17;7.00;;;9.30;99.90;;;;;;5073394;28;20621;-89
2023/05/07 05:06:18;;;;;;;9.55;7.00;;;9.30;99.90;;;;;;5073600;28;20604;-90
2023/05/07 05:08:45;;;;;;;10.60;7.03;;;9.30;99.90;;;;;;5073437;28;20234;-86
2023/05/07 05:11:11;;;;;;;8.57;7.10;;;9.30;99.90;;;;;;5073395;28;20176;-86
2023/05/07 05:13:36;;;;;;;8.70;6.85;;;9.40;99.90;;;;;;5073303;28;20571;-86
2023/05/07 05:16:02;;;;;;;9.13;7.30;;;9.40;99.90;;;;;;5062556;28;20185;-87
2023/05/07 05:18:28;;;;;;;9.63;7.03;;;9.40;99.90;;;;;;5053323;28;20647;-87
2023/05/07 05:20:53;;;;;;;7.30;6.50;;;9.40;99.90;;;;;;5053378;28;20237;-84
2023/05/07 05:23:19;;;;;;;8.00;6.97;;;9.40;99.90;;;;;;5053286;28;20620;-85
2023/05/07 05:25:45;;;;;;;7.63;6.82;;;9.40;99.90;;;;;;5053444;28;20181;-86
2023/05/07 05:28:11;;;;;;;9.93;7.00;;;9.50;99.90;;;;;;5053467;28;20526;-90
2023/05/07 05:30:37;;;;;;;9.20;7.10;;;9.40;99.90;;;;;;5053351;28;20177;-87
2023/05/07 05:33:02;;;;;;;8.75;7.50;;;9.40;99.90;;;;;;5052940;28;20275;-86
2023/05/07 05:35:30;;;;;;;8.43;7.35;;;9.40;99.90;;;;;;5053461;28;20256;-85
2023/05/07 05:37:55;;;;;;;9.73;7.67;;;9.40;99.90;;;;;;5053159;28;20268;-84
2023/05/07 05:40:21;;;;;;;9.10;7.28;;;9.40;99.90;;;;;;5053202;28;20267;-84
2023/05/07 05:42:46;;;;;;;8.60;7.20;;;9.40;99.90;;;;;;5053043;28;20209;-86
2023/05/07 05:45:12;;;;;;;8.60;7.33;;;9.40;99.90;;;;;;5053713;28;20288;-90
2023/05/07 05:47:39;;;;;;;11.70;6.88;;;9.40;99.90;;;;;;5052269;28;20213;-87
2023/05/07 05:50:07;;;;;;;9.67;7.83;;;9.40;99.90;;;;;;5054406;28;20178;-84
2023/05/07 05:52:33;;;;;;;9.02;7.57;;;9.40;99.90;;;;;;5056557;28;20210;-86
2023/05/07 05:54:58;;;;;;;11.20;7.78;;;9.40;99.90;;;;;;5056769;28;20217;-85
2023/05/07 05:57:24;;;;;;;9.90;7.75;;;9.30;99.90;;;;;;5056907;28;20182;-86
2023/05/07 05:59:51;;;;;;;9.38;7.57;;;9.40;99.90;;;;;;5056596;28;20178;-87
2023/05/07 06:02:16;;;;;;;11.05;8.18;;;9.40;99.90;;;;;;5056135;28;20206;-84
2023/05/07 06:04:42;;;;;;;10.50;7.70;;;9.40;99.90;;;;;;5057783;28;20184;-86
2023/05/07 06:07:12;;;;;;;8.87;7.27;;;9.40;99.90;;;;;;5050543;28;20183;-84
2023/05/07 06:09:38;;;;;;;9.55;7.70;;;9.40;99.90;;;;;;5036658;28;20233;-90
2023/05/07 06:12:04;;;;;;;8.80;7.45;;;9.40;99.90;;;;;;5036652;28;20178;-87
2023/05/07 06:14:29;;;;;;;10.37;7.80;;;9.40;99.90;;;;;;5037601;28;20516;-90
2023/05/07 06:16:55;;;;;;;11.77;8.23;;;9.40;99.90;;;;;;5054442;28;20273;-86
2023/05/07 06:19:29;;;;;;;9.87;8.00;;;9.40;99.90;;;;;;5056390;28;20284;-89
2023/05/07 06:21:56;;;;;;;12.07;8.30;;;9.40;99.90;;;;;;5054425;28;20246;-88
2023/05/07 06:24:22;;;;;;;10.93;7.93;;;9.40;99.90;;;;;;5057313;28;20609;-85
2023/05/07 06:26:48;;;;;;;10.90;7.53;;;9.40;99.90;;;;;;5056077;28;20190;-85
2023/05/07 06:29:15;;;;;;;9.73;7.80;;;9.40;99.90;;;;;;5055920;28;20186;-89
2023/05/07 06:31:42;;;;;;;8.57;7.67;;;9.50;99.90;;;;;;5044621;28;20653;-84
2023/05/07 06:34:07;;;;;;;10.90;7.83;;;9.50;99.90;;;;;;5047281;28;20186;-89
2023/05/07 06:36:33;;;;;;;9.37;7.80;;;9.60;99.90;;;;;;5045424;28;20182;-84
2023/05/07 06:39:00;;;;;;;9.20;7.93;;;9.60;99.90;;;;;;5038536;28;20182;-89
2023/05/07 06:41:25;;;;;;;9.55;8.13;;;9.60;99.90;;;;;;5035532;28;20206;-83
2023/05/07 06:43:51;;;;;;;9.48;7.80;;;9.50;99.90;;;;;;5035906;28;20182;-86
2023/05/07 06:46:17;;;;;;;9.43;7.63;;;9.50;99.90;;;;;;5048485;28;20225;-90
2023/05/07 06:48:42;;;;;;;13.13;8.77;;;9.50;99.90;;;;;;5057328;28;20558;-85
2023/05/07 06:51:08;;;;;;;12.40;8.77;;;9.60;99.90;;;;;;5055630;28;20189;-85
2023/05/07 06:53:35;;;;;;;11.38;8.27;;;9.60;99.90;;;;;;5055440;28;20272;-87
2023/05/07 06:56:01;;;;;;;10.45;7.82;;;9.60;99.90;;;;;;5056855;28;20232;-86
2023/05/07 06:58:26;;;;;;;9.10;7.70;;;9.50;99.90;;;;;;5056999;28;20621;-87
2023/05/07 07:00:53;;;;;;;9.98;8.00;;;9.60;99.90;;;;;;5055164;28;20269;-91
2023/05/07 07:03:19;;;;;;;8.55;7.32;;;9.60;99.90;;;;;;5055338;28;20185;-87
2023/05/07 07:05:44;;;;;;;9.45;7.80;;;9.60;99.90;;;;;;5055706;28;20642;-92
2023/05/07 07:08:10;;;;;;;9.68;7.70;;;9.60;99.90;;;;;;5055792;28;20215;-88
2023/05/07 07:10:45;;;;;;;10.93;8.13;;;9.60;99.90;;;;;;5055494;28;20181;-89
2023/05/07 07:13:11;;;;;;;9.83;7.80;;;9.60;99.90;;;;;;5055434;28;20272;-89
2023/05/07 07:15:37;;;;;;;9.63;7.55;;;9.70;99.90;;;;;;5050123;28;20584;-88
2023/05/07 07:18:02;;;;;;;12.95;8.70;;;9.70;99.90;;;;;;5056664;28;20221;-91
2023/05/07 07:20:29;;;;;;;9.55;7.43;;;9.80;99.90;;;;;;5055518;28;20170;-93
2023/05/07 07:22:54;;;;;;;9.52;7.35;;;9.80;99.90;;;;;;5055601;28;20213;-91
2023/05/07 07:25:20;;;;;;;11.38;8.07;;;9.80;99.90;;;;;;5055227;28;20642;-85
2023/05/07 07:27:46;;;;;;;9.23;6.95;;;9.80;99.90;;;;;;5054931;28;20186;-89
2023/05/07 07:30:15;;;;;;;9.18;6.90;;;9.80;99.90;;;;;;5055413;28;20182;-89
2023/05/07 07:32:42;;;;;;;9.30;6.53;;;9.80;99.90;;;;;;5056378;28;20170;-90
2023/05/07 07:35:08;;;;;;;7.40;6.18;;;9.90;99.90;;;;;;5055487;28;20189;-91
2023/05/07 07:37:34;;;;;;;10.32;6.70;;;9.90;99.90;;;;;;5056642;28;20184;-88
2023/05/07 07:40:01;;;;;;;7.30;5.97;;;10.00;99.90;;;;;;5055338;28;20178;-93
2023/05/07 07:42:26;;;;;;;7.07;5.22;;;10.00;99.90;;;;;;5054933;28;20673;-90
2023/05/07 07:44:52;;;;;;;7.10;5.63;;;10.00;99.90;;;;;;5056234;28;20288;-89
2023/05/07 07:47:18;;;;;;;6.53;5.20;;;10.10;99.90;;;;;;5054816;28;20231;-90
2023/05/07 07:49:46;;;;;;;6.90;5.73;;;10.10;99.90;;;;;;5055194;28;20265;-92
2023/05/07 07:52:12;;;;;;;5.80;4.95;;;10.10;99.90;;;;;;5044230;28;20183;-86
2023/05/07 07:54:37;;;;;;;5.95;5.30;;;10.10;99.90;;;;;;5042608;28;20272;-90
2023/05/07 07:57:03;;;;;;;7.70;5.13;;;10.20;99.90;;;;;;5052802;28;20188;-87
2023/05/07 07:59:31;;;;;;;5.80;5.05;;;10.10;99.90;;;;;;5054247;28;20597;-89
2023/05/07 08:01:56;;;;;;;5.60;5.00;;;10.20;99.90;;;;;;5065721;28;20216;-85
2023/05/07 08:04:22;;;;;;;6.32;5.15;;;10.20;99.90;;;;;;5055074;28;20525;-86
2023/05/07 08:06:48;;;;;;;6.10;5.15;;;10.20;99.90;;;;;;5054798;28;20177;-90
2023/05/07 08:09:14;;;;;;;5.85;4.80;;;10.20;99.90;;;;;;5042227;28;20560;-87
2023/05/07 08:11:41;;;;;;;6.32;5.10;;;10.30;99.90;;;;;;5039852;28;20668;-89
2023/05/07 08:14:09;;;;;;;5.28;4.55;;;10.30;99.90;;;;;;5051789;28;20625;-88
2023/05/07 08:16:35;;;;;;;9.93;5.18;;;10.30;99.90;;;;;;5057528;28;20173;-89
2023/05/07 08:19:00;;;;;;;6.43;4.93;;;10.30;99.90;;;;;;5056374;28;20855;-89
2023/05/07 08:21:28;;;;;;;5.78;5.00;;;10.30;99.90;;;;;;5053894;28;20217;-89
2023/05/07 08:23:54;;;;;;;6.15;4.97;;;10.30;99.90;;;;;;5064030;28;20178;-86
2023/05/07 08:26:20;;;;;;;6.80;5.40;;;10.30;99.90;;;;;;5053463;28;20240;-87
2023/05/07 08:28:45;;;;;;;5.60;4.80;;;10.40;99.90;;;;;;5067984;28;20174;-85
2023/05/07 08:31:11;;;;;;;5.88;4.68;;;10.40;99.90;;;;;;5053343;28;20268;-85
2023/05/07 08:33:38;;;;;;;5.22;4.65;;;10.40;99.90;;;;;;5065183;28;20181;-86
2023/05/07 08:36:04;;;;;;;5.47;4.57;;;10.40;99.90;;;;;;5057526;28;20228;-86
2023/05/07 08:38:31;;;;;;;5.53;4.70;;;10.40;99.90;;;;;;5069436;28;20186;-86
2023/05/07 08:40:56;;;;;;;6.07;5.13;;;10.40;99.90;;;;;;5053213;28;20213;-86
2023/05/07 08:43:28;;;;;;;6.18;4.97;;;10.40;99.90;;;;;;5053377;28;20205;-86
2023/05/07 08:45:55;;;;;;;6.20;5.03;;;10.50;99.90;;;;;;5060288;28;20213;-84
2023/05/07 08:48:25;;;;;;;6.18;4.85;;;10.50;99.90;;;;;;5055102;28;20181;-85
2023/05/07 08:50:51;;;;;;;5.38;4.72;;;10.50;99.90;;;;;;5073464;28;20177;-85
2023/05/07 08:53:17;;;;;;;4.93;4.40;;;10.50;99.90;;;;;;5073267;28;20173;-87
2023/05/07 08:55:43;;;;;;;4.97;4.28;;;10.60;99.90;;;;;;5073533;28;20180;-85
2023/05/07 08:58:08;;;;;;;6.30;5.07;;;10.70;99.90;;;;;;5073638;28;20181;-87
2023/05/07 09:00:36;;;;;;;4.90;4.22;;;10.70;99.90;;;;;;5061076;28;20565;-85
2023/05/07 09:03:02;;;;;;;7.47;4.60;;;10.70;99.90;;;;;;5067635;28;20280;-86
2023/05/07 09:05:27;;;;;;;7.18;5.32;;;10.70;99.90;;;;;;5053251;28;20588;-86
2023/05/07 09:07:55;;;;;;;5.22;4.72;;;10.90;99.90;;;;;;5066820;28;20177;-87
2023/05/07 09:10:22;;;;;;;7.82;5.13;;;10.90;99.90;;;;;;5055400;28;20235;-87
2023/05/07 09:12:47;;;;;;;5.65;4.75;;;11.10;99.90;;;;;;5052989;28;20178;-86
2023/05/07 09:15:14;;;;;;;7.53;5.22;;;11.10;99.90;;;;;;5053224;28;20566;-87
2023/05/07 09:17:42;;;;;;;5.35;4.82;;;11.20;99.90;;;;;;5053304;28;20623;-87
2023/05/07 09:20:08;;;;;;;5.57;4.72;;;11.30;99.90;;;;;;5054133;28;20186;-86
2023/05/07 09:22:36;;;;;;;6.38;5.30;;;11.30;99.90;;;;;;5054017;28;20201;-85
2023/05/07 09:25:02;;;;;;;6.25;5.45;;;11.40;99.90;;;;;;5056492;28;20173;-84
2023/05/07 09:27:28;;;;;;;6.10;5.47;;;11.50;99.90;;;;;;5056979;28;20672;-87
2023/05/07 09:29:54;;;;;;;6.10;5.40;;;11.60;99.90;;;;;;5056492;28;20226;-87
2023/05/07 09:32:20;;;;;;;7.00;5.90;;;11.60;99.90;;;;;;5075497;28;20176;-88
2023/05/07 09:34:47;;;;;;;6.70;5.68;;;11.60;99.90;;;;;;5078349;28;20158;-86
2023/05/07 09:37:14;;;;;;;7.25;6.10;;;11.50;99.90;;;;;;5067909;28;20184;-88
2023/05/07 09:39:48;;;;;;;7.45;5.88;;;11.50;99.90;;;;;;5056995;28;20217;-88
2023/05/07 09:42:16;;;;;;;7.18;6.15;;;11.40;99.90;;;;;;5074832;28;20287;-88
2023/05/07 09:44:44;;;;;;;8.93;6.20;;;11.30;99.90;;;;;;5077087;28;20506;-88
2023/05/07 09:47:11;;;;;;;6.57;5.88;;;11.30;99.90;;;;;;5077010;28;20192;-89
2023/05/07 09:49:41;;;;;;;7.85;6.97;;;11.30;99.90;;;;;;5077114;28;20507;-86
2023/05/07 09:52:10;;;;;;;7.00;6.03;;;11.30;99.90;;;;;;5059906;28;20802;-88
2023/05/07 09:54:37;;;;;;;7.38;6.40;;;11.40;99.90;;;;;;5078112;28;20610;-84
2023/05/07 09:57:05;;;;;;;8.35;6.85;;;11.40;99.90;;;;;;5068528;28;20186;-86
2023/05/07 09:59:32;;;;;;;9.30;6.80;;;11.40;99.90;;;;;;5059892;28;20632;-89
2023/05/07 10:02:00;;;;;;;7.88;6.07;;;11.50;99.90;;;;;;5061370;28;20747;-86
2023/05/07 10:04:26;;;;;;;6.25;5.55;;;11.40;99.90;;;;;;5060407;28;20189;-85
2023/05/07 10:06:53;;;;;;;8.40;6.30;;;11.50;99.90;;;;;;5077666;28;20195;-84
2023/05/07 10:09:20;;;;;;;6.90;6.20;;;11.50;99.90;;;;;;5066224;28;20176;-85
2023/05/07 10:11:47;;;;;;;6.30;5.65;;;11.60;99.90;;;;;;5070362;28;20272;-85
2023/05/07 10:14:14;;;;;;;7.40;6.10;;;11.60;99.90;;;;;;5059435;28;20174;-86
2023/05/07 10:16:40;;;;;;;7.70;6.18;;;11.60;99.90;;;;;;5060270;28;20186;-85
2023/05/07 10:19:09;;;;;;;7.47;5.82;;;11.70;99.90;;;;;;5056327;28;20178;-85
2023/05/07 10:21:44;;;;;;;5.80;5.20;;;11.80;99.90;;;;;;5055570;28;20722;-89
2023/05/07 10:24:19;;;;;;;9.18;6.18;;;11.80;99.90;;;;;;5055949;28;20255;-89
2023/05/07 10:26:49;;;;;;;6.78;6.03;;;11.90;99.90;;;;;;5056142;28;20178;-86
2023/05/07 10:29:32;;;;;;;8.88;7.18;;;11.90;99.90;;;;;;5057270;28;20596;-87
2023/05/07 10:32:23;;;;;;;9.80;6.75;;;11.90;99.90;;;;;;5056314;28;20186;-88
2023/05/07 10:34:53;;;;;;;7.00;5.55;;;11.90;99.90;;;;;;5047164;28;20667;-86
2023/05/07 10:37:19;;;;;;;6.72;5.80;;;12.00;99.90;;;;;;5037860;28;20228;-89
2023/05/07 10:39:45;;;;;;;7.47;6.13;;;12.10;99.90;;;;;;5055935;28;20181;-86
2023/05/07 10:42:12;;;;;;;5.97;5.38;;;12.20;99.90;;;;;;5055050;28;20930;-85
2023/05/07 10:44:39;;;;;;;6.93;5.38;;;12.40;99.90;;;;;;5055578;28;20201;-90
2023/05/07 10:47:16;;;;;;;7.47;6.03;;;12.50;99.90;;;;;;5055628;28;20522;-88
2023/05/07 10:49:45;;;;;;;7.20;5.38;;;12.60;99.90;;;;;;5055835;28;20170;-84
2023/05/07 10:52:20;;;;;;;6.15;5.53;;;12.60;99.90;;;;;;5055111;28;20600;-89
2023/05/07 10:54:46;;;;;;;5.50;4.82;;;12.50;99.90;;;;;;5054698;28;20185;-86
2023/05/07 10:57:32;;;;;;;7.18;5.97;;;12.50;99.90;;;;;;5055660;28;20185;-86
2023/05/07 10:59:58;;;;;;;5.70;5.07;;;12.50;99.90;;;;;;5054786;28;20178;-86
2023/05/07 11:03:02;;;;;;;6.63;5.93;;;12.40;99.90;;;;;;5053974;28;20213;-85
2023/05/07 11:05:30;;;;;;;6.75;5.57;;;12.50;99.90;;;;;;5048892;28;20178;-85
2023/05/07 11:10:54;;;;;;;8.75;6.53;;;12.50;99.90;;;;;;4351798;22;20246;-84
2023/05/07 11:16:44;;;;;;;7.35;6.55;;;12.20;99.90;;;;;;4796807;23;20257;-83
2023/05/07 11:19:10;;;;;;;8.50;6.65;;;12.10;99.90;;;;;;5027067;28;20229;-91
2023/05/07 11:21:41;;;;;;;7.93;6.72;;;11.90;99.90;;;;;;5029325;28;20633;-86
2023/05/07 11:24:08;;;;;;;8.43;7.03;;;11.80;99.90;;;;;;5030563;28;20171;-86
2023/05/07 11:26:49;;;;;;;9.25;6.25;;;11.90;99.90;;;;;;5031265;28;20636;-88
2023/05/07 11:29:18;;;;;;;6.40;5.70;;;11.90;99.90;;;;;;5032228;28;20186;-84
2023/05/07 11:31:47;;;;;;;6.25;5.60;;;11.90;99.90;;;;;;5030429;28;20197;-89
2023/05/07 11:34:15;;;;;;;6.32;4.75;;;12.00;99.90;;;;;;5030673;28;20170;-83
2023/05/07 11:36:45;;;;;;;8.10;5.43;;;12.00;99.90;;;;;;5034469;28;20185;-84
2023/05/07 11:39:31;;;;;;;9.05;5.70;;;12.00;99.90;;;;;;5034856;28;20188;-86
2023/05/07 11:41:57;;;;;;;7.35;6.10;;;12.10;99.90;;;;;;5017926;28;20476;-86
2023/05/07 11:44:23;;;;;;;7.00;5.85;;;12.20;99.90;;;;;;5033465;28;20166;-85
2023/05/07 11:46:50;;;;;;;7.32;5.80;;;12.20;99.90;;;;;;5034122;28;20189;-91
2023/05/07 11:49:17;;;;;;;8.57;5.70;;;12.20;99.90;;;;;;5016694;28;20171;-83
2023/05/07 11:51:43;;;;;;;7.55;6.03;;;12.20;99.90;;;;;;5032820;28;20277;-86
2023/05/07 11:54:11;;;;;;;6.20;5.35;;;12.30;99.90;;;;;;5030794;28;20198;-85
2023/05/07 11:56:38;;;;;;;7.93;6.07;;;12.40;99.90;;;;;;5036407;28;20182;-84
2023/05/07 11:59:05;;;;;;;6.43;5.32;;;12.60;99.90;;;;;;5033232;28;20174;-91
2023/05/07 12:01:31;;;;;;;6.40;4.70;;;12.60;99.90;;;;;;5033874;28;20194;-86
2023/05/07 12:03:56;;;;;;;5.90;5.00;;;12.60;99.90;;;;;;5032828;28;20189;-84
2023/05/07 12:06:22;;;;;;;10.90;7.53;;;12.70;99.90;;;;;;5033495;28;20613;-87
2023/05/07 12:08:51;;;;;;;7.47;5.03;;;12.80;99.90;;;;;;5032758;28;20237;-85
2023/05/07 12:11:23;;;;;;;6.97;4.75;;;12.90;99.90;;;;;;5033232;28;20189;-86
2023/05/07 12:13:49;;;;;;;5.20;4.63;;;13.00;99.90;;;;;;5016921;28;20167;-85
2023/05/07 12:16:14;;;;;;;7.97;5.53;;;13.10;99.90;;;;;;5034405;28;20184;-90
2023/05/07 12:18:41;;;;;;;5.38;4.72;;;13.00;99.90;;;;;;5032546;28;20256;-84
2023/05/07 12:21:07;;;;;;;7.57;5.10;;;13.00;99.90;;;;;;5030951;28;20225;-85
2023/05/07 12:23:38;;;;;;;6.05;5.35;;;13.00;99.90;;;;;;5032606;28;20554;-86
2023/05/07 12:26:04;;;;;;;6.63;4.68;;;13.10;99.90;;;;;;5033017;28;20490;-85
2023/05/07 12:28:36;;;;;;;7.10;5.60;;;13.10;99.90;;;;;;5032360;28;20186;-86
2023/05/07 12:31:02;;;;;;;7.00;5.35;;;13.10;99.90;;;;;;5033028;28;20170;-86
2023/05/07 12:33:28;;;;;;;6.55;5.38;;;13.20;99.90;;;;;;5032837;28;20486;-85
2023/05/07 12:35:56;;;;;;;6.30;4.90;;;13.20;99.90;;;;;;5032282;28;20190;-84
2023/05/07 12:38:22;;;;;;;10.40;5.50;;;13.20;99.90;;;;;;5032605;28;20628;-85
2023/05/07 12:40:53;;;;;;;7.47;5.40;;;13.30;99.90;;;;;;5032058;28;20636;-89
2023/05/07 12:43:28;;;;;;;6.75;6.05;;;13.20;99.90;;;;;;5033455;28;20195;-84
2023/05/07 12:45:56;;;;;;;6.35;5.28;;;13.30;99.90;;;;;;5046845;28;20181;-86
2023/05/07 12:48:23;;;;;;;8.48;5.60;;;13.30;99.90;;;;;;5032069;28;20201;-83
2023/05/07 12:50:54;;;;;;;6.90;5.30;;;13.30;99.90;;;;;;5032819;28;20616;-86
2023/05/07 12:53:24;;;;;;;6.32;5.18;;;13.40;99.90;;;;;;5031219;28;20198;-90
2023/05/07 12:55:56;;;;;;;5.32;4.80;;;13.40;99.90;;;;;;5032885;28;20190;-88